Time;durP1;ratioP1;P1;durP2;ratioP2;P2;SDS_P1;SDS_P2;PMS_P1;PMS_P2;Temp;Humidity;BMP_temperature;BMP_pressure;BME280_temperature;BME280_humidity;BME280_pressure;Samples;Min_cycle;Max_cycle;Signal;HPM_P1;HPM_P2
2022/09/14 00:02:05;;;;;;;4.37;3.90;;;;;;;;;;5073937;28;20456;-75
2022/09/14 00:04:32;;;;;;;3.80;3.50;;;;;;;;;;5073481;28;20548;-76
2022/09/14 00:06:59;;;;;;;4.00;3.70;;;;;;;;;;5073258;28;20485;-75
2022/09/14 00:09:26;;;;;;;5.00;4.03;;;;;;;;;;5073428;28;20441;-76
2022/09/14 00:11:54;;;;;;;3.83;3.53;;;;;;;;;;5073414;28;20494;-76
2022/09/14 00:14:21;;;;;;;4.80;4.10;;;;;;;;;;5072821;28;20444;-75
2022/09/14 00:16:48;;;;;;;6.50;3.77;;;;;;;;;;5072822;28;20950;-76
2022/09/14 00:19:18;;;;;;;3.80;3.50;;;;;;;;;;5072775;28;20464;-76
2022/09/14 00:21:45;;;;;;;4.40;4.00;;;;;;;;;;5072389;28;20453;-75
2022/09/14 00:24:12;;;;;;;4.23;3.93;;;;;;;;;;5072025;28;20959;-76
2022/09/14 00:26:39;;;;;;;3.73;3.53;;;;;;;;;;5073021;28;20484;-75
2022/09/14 00:29:06;;;;;;;3.97;3.67;;;;;;;;;;5072043;28;20467;-76
2022/09/14 00:31:34;;;;;;;3.73;3.37;;;;;;;;;;5072298;28;20456;-76
2022/09/14 00:34:02;;;;;;;4.10;3.60;;;;;;;;;;5070633;28;20915;-75
2022/09/14 00:36:30;;;;;;;4.07;3.77;;;;;;;;;;5069873;28;20437;-75
2022/09/14 00:38:59;;;;;;;4.73;4.33;;;;;;;;;;5070558;28;20807;-76
2022/09/14 00:41:28;;;;;;;4.40;4.10;;;;;;;;;;5070211;28;20448;-75
2022/09/14 00:43:57;;;;;;;4.53;3.90;;;;;;;;;;5069937;28;20987;-76
2022/09/14 00:46:24;;;;;;;4.30;3.90;;;;;;;;;;5069959;28;20473;-77
2022/09/14 00:48:51;;;;;;;6.73;4.30;;;;;;;;;;5069966;28;20534;-75
2022/09/14 00:51:19;;;;;;;4.17;3.87;;;;;;;;;;5065982;28;20475;-76
2022/09/14 00:53:48;;;;;;;4.60;4.20;;;;;;;;;;5069697;28;20502;-75
2022/09/14 00:56:15;;;;;;;4.50;3.80;;;;;;;;;;5070188;28;20452;-75
2022/09/14 00:58:43;;;;;;;4.90;3.90;;;;;;;;;;5069866;28;20979;-75
2022/09/14 01:01:10;;;;;;;4.27;3.93;;;;;;;;;;5069521;28;20448;-75
2022/09/14 01:03:37;;;;;;;5.30;4.10;;;;;;;;;;5069560;28;20444;-77
2022/09/14 01:06:07;;;;;;;4.73;3.93;;;;;;;;;;5069215;28;20464;-74
2022/09/14 01:08:43;;;;;;;4.63;4.10;;;;;;;;;;5069084;28;20925;-77
2022/09/14 01:11:17;;;;;;;4.50;4.10;;;;;;;;;;5069222;28;20436;-76
2022/09/14 01:13:48;;;;;;;6.10;3.83;;;;;;;;;;5054365;28;20448;-76
2022/09/14 01:16:21;;;;;;;6.00;4.33;;;;;;;;;;5070037;28;20495;-75
2022/09/14 01:18:50;;;;;;;5.03;4.53;;;;;;;;;;5069660;28;20456;-75
2022/09/14 01:21:20;;;;;;;6.30;4.20;;;;;;;;;;5069635;28;20432;-76
2022/09/14 01:23:49;;;;;;;5.20;4.70;;;;;;;;;;5069777;28;20476;-75
2022/09/14 01:26:32;;;;;;;4.30;4.00;;;;;;;;;;5069582;28;20444;-76
2022/09/14 01:29:02;;;;;;;4.10;3.80;;;;;;;;;;5069765;28;21265;-76
2022/09/14 01:31:31;;;;;;;3.93;3.63;;;;;;;;;;5069532;28;20440;-77
2022/09/14 01:34:05;;;;;;;12.37;4.60;;;;;;;;;;5069388;28;20441;-77
2022/09/14 01:36:34;;;;;;;8.13;3.80;;;;;;;;;;5069285;28;21031;-74
2022/09/14 01:39:02;;;;;;;3.50;3.00;;;;;;;;;;5068874;28;20834;-74
2022/09/14 01:41:30;;;;;;;4.00;2.27;;;;;;;;;;5069320;28;20433;-74
2022/09/14 01:43:58;;;;;;;4.87;2.60;;;;;;;;;;5068632;28;20449;-74
2022/09/14 01:46:29;;;;;;;4.90;2.20;;;;;;;;;;5068926;28;20502;-76
2022/09/14 01:49:00;;;;;;;6.50;3.10;;;;;;;;;;5068228;28;20469;-76
2022/09/14 01:51:30;;;;;;;4.90;2.50;;;;;;;;;;5068777;28;20448;-75
2022/09/14 01:54:01;;;;;;;2.73;2.53;;;;;;;;;;5068625;28;20444;-75
2022/09/14 01:56:31;;;;;;;6.57;3.03;;;;;;;;;;5062031;28;20457;-76
2022/09/14 01:59:02;;;;;;;5.70;3.13;;;;;;;;;;5048595;28;20483;-74
2022/09/14 02:01:34;;;;;;;7.87;3.43;;;;;;;;;;5048543;28;20441;-75
2022/09/14 02:04:02;;;;;;;4.93;3.40;;;;;;;;;;5049015;28;20434;-75
2022/09/14 02:06:32;;;;;;;4.03;3.03;;;;;;;;;;5052021;28;21022;-76
2022/09/14 02:08:59;;;;;;;4.13;3.53;;;;;;;;;;5052305;28;20924;-76
2022/09/14 02:11:27;;;;;;;7.43;3.47;;;;;;;;;;5070774;28;20568;-75
2022/09/14 02:13:54;;;;;;;6.00;3.53;;;;;;;;;;5069826;28;20453;-75
2022/09/14 02:16:22;;;;;;;8.03;3.40;;;;;;;;;;5069075;28;20449;-76
2022/09/14 02:18:51;;;;;;;4.23;3.60;;;;;;;;;;5069333;28;20470;-76
2022/09/14 02:21:20;;;;;;;4.50;3.30;;;;;;;;;;5069059;28;20947;-76
2022/09/14 02:23:47;;;;;;;3.73;3.40;;;;;;;;;;5068792;28;20808;-75
2022/09/14 02:26:16;;;;;;;3.70;3.40;;;;;;;;;;5068737;28;20563;-75
2022/09/14 02:28:43;;;;;;;6.70;3.63;;;;;;;;;;5068292;28;20965;-76
2022/09/14 02:31:13;;;;;;;4.07;3.67;;;;;;;;;;5068541;28;20449;-77
2022/09/14 02:33:44;;;;;;;5.90;4.00;;;;;;;;;;5065208;28;20508;-77
2022/09/14 02:36:16;;;;;;;5.97;4.10;;;;;;;;;;5057041;28;20432;-76
2022/09/14 02:38:47;;;;;;;4.30;4.00;;;;;;;;;;5068680;28;20468;-76
2022/09/14 02:41:18;;;;;;;4.00;3.60;;;;;;;;;;5068261;28;21386;-75
2022/09/14 02:43:49;;;;;;;4.57;4.17;;;;;;;;;;5068059;28;20514;-76
2022/09/14 02:46:17;;;;;;;5.17;4.70;;;;;;;;;;5068704;28;20447;-76
2022/09/14 02:48:48;;;;;;;5.37;4.27;;;;;;;;;;5068678;28;20485;-76
2022/09/14 02:51:20;;;;;;;4.90;4.33;;;;;;;;;;5068787;28;20432;-76
2022/09/14 02:53:49;;;;;;;5.50;4.40;;;;;;;;;;5068216;28;20509;-76
2022/09/14 02:56:17;;;;;;;5.27;4.33;;;;;;;;;;5068031;28;20471;-76
2022/09/14 02:58:45;;;;;;;4.57;3.83;;;;;;;;;;5074714;28;20811;-75
2022/09/14 03:01:13;;;;;;;4.63;3.73;;;;;;;;;;5076840;28;21071;-75
2022/09/14 03:03:40;;;;;;;4.67;4.27;;;;;;;;;;5074882;28;20480;-75
2022/09/14 03:06:07;;;;;;;4.63;3.97;;;;;;;;;;5071308;28;20469;-76
2022/09/14 03:08:36;;;;;;;5.03;4.63;;;;;;;;;;5067498;28;20483;-76
2022/09/14 03:11:03;;;;;;;8.07;4.90;;;;;;;;;;5073863;28;20543;-76
2022/09/14 03:13:30;;;;;;;7.57;4.50;;;;;;;;;;5070306;28;20445;-76
2022/09/14 03:15:57;;;;;;;9.53;4.30;;;;;;;;;;5062519;28;20445;-76
2022/09/14 03:18:24;;;;;;;5.97;4.47;;;;;;;;;;5073701;28;20460;-76
2022/09/14 03:20:51;;;;;;;4.67;4.13;;;;;;;;;;5074221;28;20498;-77
2022/09/14 03:23:18;;;;;;;6.20;5.07;;;;;;;;;;5073498;28;20441;-77
2022/09/14 03:25:46;;;;;;;5.63;5.13;;;;;;;;;;5074284;28;20682;-76
2022/09/14 03:28:13;;;;;;;11.53;4.60;;;;;;;;;;5074322;28;20571;-76
2022/09/14 03:30:40;;;;;;;4.93;4.57;;;;;;;;;;5073826;28;20459;-76
2022/09/14 03:33:07;;;;;;;5.57;4.73;;;;;;;;;;5073636;28;20514;-76
2022/09/14 03:35:34;;;;;;;4.43;4.03;;;;;;;;;;5073518;28;20440;-75
2022/09/14 03:38:02;;;;;;;5.40;4.47;;;;;;;;;;5073697;28;20870;-76
2022/09/14 03:40:29;;;;;;;4.90;4.30;;;;;;;;;;5074165;28;20527;-77
2022/09/14 03:42:58;;;;;;;5.17;4.73;;;;;;;;;;5074226;28;20459;-77
2022/09/14 03:45:25;;;;;;;5.13;4.73;;;;;;;;;;5075277;28;20440;-76
2022/09/14 03:47:52;;;;;;;5.17;4.50;;;;;;;;;;5080889;28;20480;-76
2022/09/14 03:50:19;;;;;;;5.13;4.73;;;;;;;;;;5081080;28;20445;-76
2022/09/14 03:52:46;;;;;;;5.10;4.70;;;;;;;;;;5078491;28;20540;-76
2022/09/14 03:55:13;;;;;;;5.83;5.20;;;;;;;;;;5079342;28;20521;-78
2022/09/14 03:57:40;;;;;;;5.90;5.30;;;;;;;;;;5078675;28;20514;-75
2022/09/14 04:00:09;;;;;;;4.97;4.47;;;;;;;;;;5075314;28;20498;-76
2022/09/14 04:02:36;;;;;;;5.17;4.67;;;;;;;;;;5076299;28;20522;-76
2022/09/14 04:05:04;;;;;;;7.47;5.60;;;;;;;;;;5083799;28;20441;-76
2022/09/14 04:07:31;;;;;;;6.43;5.57;;;;;;;;;;5081743;28;20510;-77
2022/09/14 04:09:58;;;;;;;6.90;5.90;;;;;;;;;;5071134;28;20512;-76
2022/09/14 04:12:26;;;;;;;6.70;5.87;;;;;;;;;;5064479;28;20446;-76
2022/09/14 04:14:53;;;;;;;6.67;6.07;;;;;;;;;;5067117;28;20502;-76
2022/09/14 04:17:24;;;;;;;6.40;5.90;;;;;;;;;;5055074;28;20465;-77
2022/09/14 04:19:51;;;;;;;7.60;6.53;;;;;;;;;;5074059;28;20437;-76
2022/09/14 04:22:18;;;;;;;7.00;6.40;;;;;;;;;;5073954;28;20502;-76
2022/09/14 04:24:46;;;;;;;7.80;6.53;;;;;;;;;;5073444;28;20530;-76
2022/09/14 04:27:13;;;;;;;6.80;6.20;;;;;;;;;;5073505;28;20484;-76
2022/09/14 04:29:40;;;;;;;7.10;6.40;;;;;;;;;;5074218;28;20869;-76
2022/09/14 04:32:08;;;;;;;6.97;6.30;;;;;;;;;;5068319;28;20445;-76
2022/09/14 04:34:36;;;;;;;8.80;7.07;;;;;;;;;;5060638;28;20445;-76
2022/09/14 04:37:03;;;;;;;9.07;8.23;;;;;;;;;;5054146;28;20523;-77
2022/09/14 04:39:30;;;;;;;6.40;5.50;;;;;;;;;;5055244;28;20822;-76
2022/09/14 04:41:57;;;;;;;6.30;5.70;;;;;;;;;;5054054;28;20449;-75
2022/09/14 04:44:24;;;;;;;6.20;5.70;;;;;;;;;;5054157;28;20445;-77
2022/09/14 04:46:51;;;;;;;6.07;5.47;;;;;;;;;;5053312;28;20832;-76
2022/09/14 04:49:20;;;;;;;5.60;5.20;;;;;;;;;;5052386;28;20481;-75
2022/09/14 04:51:48;;;;;;;6.13;5.53;;;;;;;;;;5052285;28;20459;-76
2022/09/14 04:54:16;;;;;;;6.33;5.73;;;;;;;;;;5052087;28;20499;-76
2022/09/14 04:56:44;;;;;;;7.00;6.27;;;;;;;;;;5051800;28;20528;-75
2022/09/14 04:59:11;;;;;;;6.50;6.00;;;;;;;;;;5051521;28;20550;-76
2022/09/14 05:01:39;;;;;;;6.63;5.20;;;;;;;;;;5051816;28;20448;-76
2022/09/14 05:04:07;;;;;;;6.43;5.90;;;;;;;;;;5051281;28;20868;-77
2022/09/14 05:06:36;;;;;;;5.63;5.13;;;;;;;;;;5051826;28;20457;-76
2022/09/14 05:09:05;;;;;;;5.73;5.40;;;;;;;;;;5051725;28;20573;-76
2022/09/14 05:11:33;;;;;;;7.37;6.63;;;;;;;;;;5061527;28;20858;-76
2022/09/14 05:14:01;;;;;;;6.13;5.10;;;;;;;;;;5071927;28;20444;-76
2022/09/14 05:16:28;;;;;;;6.83;5.40;;;;;;;;;;5071682;28;20597;-76
2022/09/14 05:18:56;;;;;;;5.73;5.23;;;;;;;;;;5072122;28;20461;-77
2022/09/14 05:21:24;;;;;;;6.00;5.50;;;;;;;;;;5071910;28;20812;-77
2022/09/14 05:23:54;;;;;;;6.47;5.70;;;;;;;;;;5072298;28;20471;-77
2022/09/14 05:26:23;;;;;;;6.57;5.97;;;;;;;;;;5072094;28;20528;-77
2022/09/14 05:28:51;;;;;;;8.13;6.03;;;;;;;;;;5072158;28;20833;-77
2022/09/14 05:31:18;;;;;;;6.90;6.10;;;;;;;;;;5071364;28;21019;-77
2022/09/14 05:33:45;;;;;;;7.83;6.33;;;;;;;;;;5071788;28;20448;-77
2022/09/14 05:36:12;;;;;;;5.87;5.43;;;;;;;;;;5071178;28;20954;-76
2022/09/14 05:38:40;;;;;;;7.40;6.70;;;;;;;;;;5071027;28;20505;-77
2022/09/14 05:41:08;;;;;;;7.73;6.67;;;;;;;;;;5070758;28;20449;-76
2022/09/14 05:43:36;;;;;;;7.70;7.10;;;;;;;;;;5070758;28;20440;-78
2022/09/14 05:46:04;;;;;;;8.10;7.40;;;;;;;;;;5070992;28;20818;-77
2022/09/14 05:48:32;;;;;;;8.93;7.90;;;;;;;;;;5071280;28;20860;-77
2022/09/14 05:50:59;;;;;;;8.20;7.50;;;;;;;;;;5070793;28;20447;-76
2022/09/14 05:53:26;;;;;;;8.90;7.40;;;;;;;;;;5070656;28;20548;-77
2022/09/14 05:55:59;;;;;;;8.10;7.40;;;;;;;;;;5070719;28;20864;-76
2022/09/14 05:58:27;;;;;;;10.13;9.43;;;;;;;;;;5070792;28;20540;-77
2022/09/14 06:00:55;;;;;;;10.30;8.00;;;;;;;;;;5071364;28;20772;-77
2022/09/14 06:03:22;;;;;;;10.33;7.80;;;;;;;;;;5070993;28;20464;-78
2022/09/14 06:05:49;;;;;;;8.67;8.07;;;;;;;;;;5070499;28;20498;-76
2022/09/14 06:08:16;;;;;;;9.47;8.77;;;;;;;;;;5070486;28;20982;-76
2022/09/14 06:10:43;;;;;;;10.00;9.00;;;;;;;;;;5068422;28;20444;-77
2022/09/14 06:13:10;;;;;;;9.30;8.50;;;;;;;;;;5050753;28;20448;-77
2022/09/14 06:15:37;;;;;;;8.80;8.10;;;;;;;;;;5050906;28;20449;-76
2022/09/14 06:18:06;;;;;;;9.90;9.00;;;;;;;;;;5057893;28;20469;-76
2022/09/14 06:20:33;;;;;;;8.53;7.67;;;;;;;;;;5050731;28;20471;-77
2022/09/14 06:23:00;;;;;;;8.33;7.60;;;;;;;;;;5050084;28;20876;-77
2022/09/14 06:25:27;;;;;;;8.27;7.57;;;;;;;;;;5050004;28;20477;-76
2022/09/14 06:27:54;;;;;;;9.00;8.20;;;;;;;;;;5050034;28;20469;-77
2022/09/14 06:30:21;;;;;;;9.07;8.27;;;;;;;;;;5051241;28;20437;-77
2022/09/14 06:32:48;;;;;;;7.73;7.13;;;;;;;;;;5050356;28;20537;-76
2022/09/14 06:35:17;;;;;;;7.70;6.90;;;;;;;;;;5050649;28;20445;-77
2022/09/14 06:37:44;;;;;;;8.20;7.60;;;;;;;;;;5050475;28;20480;-75
2022/09/14 06:40:11;;;;;;;8.00;7.00;;;;;;;;;;5050592;28;20766;-77
2022/09/14 06:42:38;;;;;;;8.43;7.40;;;;;;;;;;5050345;28;20441;-77
2022/09/14 06:45:06;;;;;;;8.57;6.80;;;;;;;;;;5050140;28;20449;-77
2022/09/14 06:47:33;;;;;;;7.03;6.47;;;;;;;;;;5050060;28;20491;-76
2022/09/14 06:50:00;;;;;;;7.20;5.70;;;;;;;;;;5050380;28;20484;-76
2022/09/14 06:52:28;;;;;;;8.20;7.40;;;;;;;;;;5049981;28;20955;-76
2022/09/14 06:54:55;;;;;;;8.00;7.30;;;;;;;;;;5050372;28;20461;-76
2022/09/14 06:57:22;;;;;;;8.87;7.87;;;;;;;;;;5051019;28;20465;-76
2022/09/14 06:59:49;;;;;;;8.83;7.93;;;;;;;;;;5050929;28;20702;-77
2022/09/14 07:02:16;;;;;;;12.43;8.17;;;;;;;;;;5050967;28;20498;-77
2022/09/14 07:04:43;;;;;;;9.33;8.50;;;;;;;;;;5050295;28;20510;-77
2022/09/14 07:07:10;;;;;;;10.40;7.30;;;;;;;;;;5050313;28;20507;-77
2022/09/14 07:09:39;;;;;;;6.03;5.50;;;;;;;;;;5050400;28;20496;-77
2022/09/14 07:12:06;;;;;;;6.70;6.10;;;;;;;;;;5064603;28;20838;-76
2022/09/14 07:14:35;;;;;;;7.07;6.07;;;;;;;;;;5070172;28;20640;-77
2022/09/14 07:17:02;;;;;;;6.43;5.90;;;;;;;;;;5069815;28;20490;-78
2022/09/14 07:19:29;;;;;;;5.27;4.90;;;;;;;;;;5069862;28;20451;-77
2022/09/14 07:21:56;;;;;;;6.17;5.57;;;;;;;;;;5070142;28;20437;-77
2022/09/14 07:24:23;;;;;;;5.40;5.00;;;;;;;;;;5070330;28;20477;-76
2022/09/14 07:26:51;;;;;;;5.97;5.30;;;;;;;;;;5069772;28;20498;-77
2022/09/14 07:29:20;;;;;;;6.77;5.20;;;;;;;;;;5070286;28;20476;-77
2022/09/14 07:31:51;;;;;;;5.97;5.50;;;;;;;;;;5072264;28;20472;-77
2022/09/14 07:34:30;;;;;;;5.67;5.07;;;;;;;;;;5075057;28;20444;-77
2022/09/14 07:36:59;;;;;;;6.00;5.50;;;;;;;;;;5073037;28;20443;-77
2022/09/14 07:39:26;;;;;;;5.60;5.10;;;;;;;;;;5070697;28;20486;-77
2022/09/14 07:41:55;;;;;;;5.53;5.13;;;;;;;;;;5070344;28;20448;-77
2022/09/14 07:44:22;;;;;;;5.77;5.37;;;;;;;;;;5070025;28;20457;-75
2022/09/14 07:46:49;;;;;;;5.63;5.00;;;;;;;;;;5075549;28;20514;-77
2022/09/14 07:49:17;;;;;;;5.30;4.90;;;;;;;;;;5072848;28;20971;-76
2022/09/14 07:51:44;;;;;;;5.60;5.10;;;;;;;;;;5073465;28;20452;-77
2022/09/14 07:54:13;;;;;;;5.20;4.90;;;;;;;;;;5073476;28;20452;-77
2022/09/14 07:56:40;;;;;;;5.57;5.03;;;;;;;;;;5073265;28;20540;-77
2022/09/14 07:59:10;;;;;;;5.47;5.07;;;;;;;;;;5072919;28;20469;-76
2022/09/14 08:01:39;;;;;;;5.20;4.80;;;;;;;;;;5075787;28;20448;-78
2022/09/14 08:04:08;;;;;;;6.03;4.83;;;;;;;;;;5074747;28;20451;-77
2022/09/14 08:06:36;;;;;;;5.10;4.70;;;;;;;;;;5076422;28;20503;-76
2022/09/14 08:09:06;;;;;;;4.47;4.17;;;;;;;;;;5075314;28;20488;-76
2022/09/14 08:11:34;;;;;;;4.67;4.33;;;;;;;;;;5064164;28;20458;-76
2022/09/14 08:14:02;;;;;;;5.20;4.80;;;;;;;;;;5053345;28;20476;-77
2022/09/14 08:16:31;;;;;;;5.40;4.47;;;;;;;;;;5053125;28;20521;-76
2022/09/14 08:18:59;;;;;;;4.97;4.67;;;;;;;;;;5053260;28;20465;-76
2022/09/14 08:21:27;;;;;;;4.80;4.40;;;;;;;;;;5052835;28;20434;-76
2022/09/14 08:23:56;;;;;;;6.67;4.10;;;;;;;;;;5053599;28;20454;-74
2022/09/14 08:26:24;;;;;;;4.00;3.70;;;;;;;;;;5058499;28;20446;-77
2022/09/14 08:28:51;;;;;;;4.50;4.27;;;;;;;;;;5069484;28;20497;-76
2022/09/14 08:31:20;;;;;;;4.13;3.83;;;;;;;;;;5069032;28;20445;-77
2022/09/14 08:33:49;;;;;;;4.20;3.90;;;;;;;;;;5069483;28;20481;-75
2022/09/14 08:36:17;;;;;;;4.93;4.07;;;;;;;;;;5069660;28;20441;-76
2022/09/14 08:38:44;;;;;;;4.90;4.00;;;;;;;;;;5057232;28;20465;-76
2022/09/14 08:41:17;;;;;;;4.70;3.73;;;;;;;;;;5066201;28;20438;-75
2022/09/14 08:43:44;;;;;;;3.97;3.67;;;;;;;;;;5076744;28;20491;-76
2022/09/14 08:46:15;;;;;;;4.83;3.67;;;;;;;;;;5072725;28;20445;-74
2022/09/14 08:48:45;;;;;;;5.13;3.80;;;;;;;;;;5063774;28;20521;-76
2022/09/14 08:51:13;;;;;;;4.63;3.50;;;;;;;;;;5067331;28;20534;-75
2022/09/14 08:53:41;;;;;;;5.07;4.57;;;;;;;;;;5066312;28;20456;-75
2022/09/14 08:56:12;;;;;;;4.37;3.97;;;;;;;;;;5066100;28;20438;-76
2022/09/14 08:58:47;;;;;;;5.43;3.87;;;;;;;;;;5056101;28;20510;-76
2022/09/14 09:01:19;;;;;;;4.10;3.60;;;;;;;;;;5072777;28;20436;-75
2022/09/14 09:03:52;;;;;;;3.93;3.70;;;;;;;;;;5071390;28;20440;-75
2022/09/14 09:06:24;;;;;;;8.23;4.40;;;;;;;;;;5068829;28;20453;-75
2022/09/14 09:08:57;;;;;;;5.30;3.80;;;;;;;;;;5052617;28;20515;-75
2022/09/14 09:11:28;;;;;;;3.77;3.47;;;;;;;;;;5062850;28;20469;-75
2022/09/14 09:13:56;;;;;;;3.30;3.00;;;;;;;;;;5059781;28;20524;-75
2022/09/14 09:16:25;;;;;;;3.03;2.80;;;;;;;;;;5074996;28;20448;-75
2022/09/14 09:18:53;;;;;;;3.87;2.50;;;;;;;;;;5052124;28;20454;-75
2022/09/14 09:21:24;;;;;;;3.77;3.00;;;;;;;;;;5060081;28;20498;-75
2022/09/14 09:23:51;;;;;;;4.43;3.40;;;;;;;;;;5071638;28;20437;-75
2022/09/14 09:26:24;;;;;;;2.80;2.60;;;;;;;;;;5071600;28;20506;-75
2022/09/14 09:28:53;;;;;;;3.00;2.80;;;;;;;;;;5070933;28;20465;-75
2022/09/14 09:31:24;;;;;;;2.70;2.40;;;;;;;;;;5071433;28;20453;-76
2022/09/14 09:33:51;;;;;;;2.80;2.60;;;;;;;;;;5071752;28;20436;-76
2022/09/14 09:36:18;;;;;;;3.27;2.60;;;;;;;;;;5071771;28;20433;-76
2022/09/14 09:38:47;;;;;;;3.10;2.90;;;;;;;;;;5071766;28;20533;-75
2022/09/14 09:41:19;;;;;;;3.40;2.70;;;;;;;;;;5071228;28;20909;-75
2022/09/14 09:43:58;;;;;;;6.63;3.07;;;;;;;;;;5071462;28;20473;-76
2022/09/14 09:46:25;;;;;;;2.70;2.53;;;;;;;;;;5070866;28;21054;-76
2022/09/14 09:48:53;;;;;;;3.23;2.93;;;;;;;;;;5071313;28;20472;-75
2022/09/14 09:51:27;;;;;;;3.13;2.93;;;;;;;;;;5071520;28;20437;-75
2022/09/14 09:53:58;;;;;;;4.57;2.67;;;;;;;;;;5070598;28;20439;-76
2022/09/14 09:56:26;;;;;;;2.90;2.70;;;;;;;;;;5071201;28;20463;-76
2022/09/14 09:58:54;;;;;;;2.90;2.80;;;;;;;;;;5071268;28;20465;-76
2022/09/14 10:01:22;;;;;;;2.50;2.30;;;;;;;;;;5071733;28;20506;-76
2022/09/14 10:04:01;;;;;;;3.30;2.63;;;;;;;;;;5071253;28;20467;-76
2022/09/14 10:06:28;;;;;;;3.20;3.00;;;;;;;;;;5071317;28;20604;-76
2022/09/14 10:08:58;;;;;;;3.17;2.40;;;;;;;;;;5070495;28;20464;-76
2022/09/14 10:11:29;;;;;;;5.80;2.77;;;;;;;;;;5071931;28;20874;-75
2022/09/14 10:13:57;;;;;;;2.70;2.50;;;;;;;;;;5070955;28;21120;-76
2022/09/14 10:16:25;;;;;;;3.60;2.40;;;;;;;;;;5072171;28;20499;-75
2022/09/14 10:18:53;;;;;;;4.83;2.50;;;;;;;;;;5071139;28;20461;-76
2022/09/14 10:21:21;;;;;;;2.60;2.40;;;;;;;;;;5071160;28;20460;-76
2022/09/14 10:24:02;;;;;;;5.30;2.70;;;;;;;;;;5072511;28;20506;-75
2022/09/14 10:26:31;;;;;;;3.10;2.37;;;;;;;;;;5080550;28;20486;-75
2022/09/14 10:29:27;;;;;;;6.27;5.77;;;;;;;;;;5067189;28;20473;-75
2022/09/14 10:31:57;;;;;;;2.87;2.50;;;;;;;;;;5069674;28;20429;-76
2022/09/14 10:34:24;;;;;;;2.57;2.47;;;;;;;;;;5084656;28;20513;-77
2022/09/14 10:36:55;;;;;;;3.60;2.67;;;;;;;;;;5086350;28;20436;-77
2022/09/14 10:39:25;;;;;;;3.27;2.30;;;;;;;;;;5076937;28;20518;-76
2022/09/14 10:41:56;;;;;;;3.03;2.50;;;;;;;;;;5079046;28;20438;-76
2022/09/14 10:44:29;;;;;;;3.43;2.40;;;;;;;;;;5084021;28;20433;-76
2022/09/14 10:47:04;;;;;;;3.90;2.60;;;;;;;;;;5082208;28;20433;-75
2022/09/14 10:49:38;;;;;;;2.70;2.50;;;;;;;;;;5085662;28;21033;-75
2022/09/14 10:52:10;;;;;;;3.37;2.90;;;;;;;;;;5074402;28;20471;-76
2022/09/14 10:54:51;;;;;;;4.90;2.97;;;;;;;;;;5070526;28;20432;-76
2022/09/14 10:57:23;;;;;;;3.57;2.53;;;;;;;;;;5072757;28;20883;-76
2022/09/14 10:59:54;;;;;;;2.70;2.37;;;;;;;;;;5070650;28;20427;-76
2022/09/14 11:02:28;;;;;;;2.53;2.33;;;;;;;;;;5070622;28;20881;-77
2022/09/14 11:05:05;;;;;;;2.47;2.37;;;;;;;;;;5070642;28;20440;-76
2022/09/14 11:07:35;;;;;;;3.43;1.90;;;;;;;;;;5070320;28;20479;-77
2022/09/14 11:10:07;;;;;;;3.40;2.10;;;;;;;;;;5070050;28;20522;-76
2022/09/14 11:12:40;;;;;;;3.03;2.40;;;;;;;;;;5070824;28;20451;-77
2022/09/14 11:15:11;;;;;;;2.83;2.50;;;;;;;;;;5070666;28;20482;-76
2022/09/14 11:17:45;;;;;;;2.20;2.10;;;;;;;;;;5070874;28;20875;-77
2022/09/14 11:20:17;;;;;;;7.43;2.40;;;;;;;;;;5072707;28;20421;-77
2022/09/14 11:22:47;;;;;;;2.50;2.30;;;;;;;;;;5074034;28;20478;-76
2022/09/14 11:25:17;;;;;;;3.40;2.13;;;;;;;;;;5073984;28;20537;-76
2022/09/14 11:27:49;;;;;;;3.40;2.50;;;;;;;;;;5074260;28;20464;-76
2022/09/14 11:30:18;;;;;;;2.73;2.53;;;;;;;;;;5074217;28;20461;-77
2022/09/14 11:32:47;;;;;;;3.43;2.60;;;;;;;;;;5074593;28;20474;-77
2022/09/14 11:35:16;;;;;;;3.60;2.37;;;;;;;;;;5074325;28;20448;-76
2022/09/14 11:37:44;;;;;;;3.50;2.10;;;;;;;;;;5073511;28;20472;-77
2022/09/14 11:40:16;;;;;;;4.13;1.90;;;;;;;;;;5073784;28;20920;-77
2022/09/14 11:42:47;;;;;;;2.57;2.37;;;;;;;;;;5073290;28;21075;-77
2022/09/14 11:45:16;;;;;;;3.17;2.50;;;;;;;;;;5074000;28;20432;-76
2022/09/14 11:47:47;;;;;;;2.60;2.40;;;;;;;;;;5073126;28;20468;-79
2022/09/14 11:50:18;;;;;;;2.93;1.93;;;;;;;;;;5073610;28;20465;-76
2022/09/14 11:52:45;;;;;;;2.60;2.30;;;;;;;;;;5072827;28;20949;-77
2022/09/14 11:55:16;;;;;;;3.10;2.30;;;;;;;;;;5073511;28;20921;-76
2022/09/14 11:57:46;;;;;;;4.67;2.30;;;;;;;;;;5073219;28;20503;-77
2022/09/14 12:00:33;;;;;;;3.70;2.57;;;;;;;;;;5073015;28;20445;-77
2022/09/14 12:03:12;;;;;;;4.83;1.93;;;;;;;;;;5073095;28;20449;-77
2022/09/14 12:05:40;;;;;;;2.60;2.20;;;;;;;;;;5073709;28;20546;-77
2022/09/14 12:08:28;;;;;;;3.00;2.40;;;;;;;;;;5073374;28;20461;-76
2022/09/14 12:11:05;;;;;;;5.83;2.70;;;;;;;;;;5072958;28;20887;-75
2022/09/14 12:13:34;;;;;;;3.23;2.20;;;;;;;;;;5073283;28;20443;-77
2022/09/14 12:16:03;;;;;;;2.90;2.60;;;;;;;;;;5073792;28;20449;-77
2022/09/14 12:18:30;;;;;;;2.67;2.40;;;;;;;;;;5073121;28;20480;-76
2022/09/14 12:21:01;;;;;;;2.83;2.27;;;;;;;;;;5074319;28;20452;-76
2022/09/14 12:23:45;;;;;;;4.23;2.70;;;;;;;;;;5082560;28;20444;-77
2022/09/14 12:26:30;;;;;;;3.30;2.90;;;;;;;;;;5083700;28;20479;-77
2022/09/14 12:29:01;;;;;;;2.77;2.33;;;;;;;;;;5083005;28;20460;-76
2022/09/14 12:31:34;;;;;;;2.63;2.40;;;;;;;;;;5076887;28;20522;-76
2022/09/14 12:34:15;;;;;;;3.30;2.33;;;;;;;;;;5073173;28;20524;-75
2022/09/14 12:36:58;;;;;;;2.00;1.90;;;;;;;;;;5072897;28;20535;-76
2022/09/14 12:39:26;;;;;;;4.93;2.90;;;;;;;;;;5072900;28;20540;-76
2022/09/14 12:42:00;;;;;;;4.73;2.80;;;;;;;;;;5072369;28;20437;-76
2022/09/14 12:44:39;;;;;;;4.37;3.00;;;;;;;;;;5072319;28;20429;-77
2022/09/14 12:47:26;;;;;;;3.33;2.83;;;;;;;;;;5076200;28;20960;-75
2022/09/14 12:49:56;;;;;;;4.37;3.30;;;;;;;;;;5075235;28;20437;-77
2022/09/14 12:52:34;;;;;;;3.90;3.00;;;;;;;;;;5073062;28;21264;-75
2022/09/14 12:55:07;;;;;;;3.10;2.90;;;;;;;;;;5073032;28;20469;-76
2022/09/14 12:57:39;;;;;;;3.13;2.83;;;;;;;;;;5072609;28;20468;-75
2022/09/14 13:00:14;;;;;;;3.20;2.90;;;;;;;;;;5086626;28;20429;-76
2022/09/14 13:02:48;;;;;;;5.20;2.93;;;;;;;;;;5081022;28;20444;-78
2022/09/14 13:05:16;;;;;;;4.33;3.33;;;;;;;;;;5072686;28;20498;-77
2022/09/14 13:07:43;;;;;;;3.20;2.90;;;;;;;;;;5072888;28;20507;-76
2022/09/14 13:10:17;;;;;;;3.03;2.83;;;;;;;;;;5072458;28;20450;-76
2022/09/14 13:12:45;;;;;;;3.23;2.70;;;;;;;;;;5072371;28;20518;-76
2022/09/14 13:15:18;;;;;;;4.30;2.40;;;;;;;;;;5072032;28;20440;-74
2022/09/14 13:18:01;;;;;;;5.23;3.00;;;;;;;;;;5072637;28;20524;-76
2022/09/14 13:20:29;;;;;;;3.20;2.67;;;;;;;;;;5072113;28;20444;-77
2022/09/14 13:22:56;;;;;;;4.60;2.90;;;;;;;;;;5071416;28;20879;-75
2022/09/14 13:25:28;;;;;;;2.60;2.40;;;;;;;;;;5072446;28;20452;-75
2022/09/14 13:27:56;;;;;;;2.43;2.23;;;;;;;;;;5071332;28;20460;-76
2022/09/14 13:30:25;;;;;;;3.50;2.27;;;;;;;;;;5071663;28;20526;-76
2022/09/14 13:32:54;;;;;;;2.57;2.37;;;;;;;;;;5070976;28;20453;-77
2022/09/14 13:35:25;;;;;;;3.03;2.17;;;;;;;;;;5071320;28;20452;-76
2022/09/14 13:37:52;;;;;;;3.97;2.50;;;;;;;;;;5070883;28;20988;-75
2022/09/14 13:40:23;;;;;;;2.83;2.57;;;;;;;;;;5071683;28;20475;-76
2022/09/14 13:42:50;;;;;;;3.03;2.50;;;;;;;;;;5071006;28;20440;-77
2022/09/14 13:45:17;;;;;;;3.73;2.70;;;;;;;;;;5071234;28;20510;-77
2022/09/14 13:47:46;;;;;;;5.70;2.67;;;;;;;;;;5072741;28;20795;-76
2022/09/14 13:50:13;;;;;;;2.53;2.33;;;;;;;;;;5071551;28;20812;-77
2022/09/14 13:52:41;;;;;;;4.23;2.70;;;;;;;;;;5070618;28;20499;-75
2022/09/14 13:55:12;;;;;;;2.33;2.13;;;;;;;;;;5068071;28;20445;-76
2022/09/14 13:57:39;;;;;;;2.33;2.10;;;;;;;;;;5057415;28;20542;-76
2022/09/14 14:00:15;;;;;;;1.57;1.47;;;;;;;;;;5072778;28;20514;-76
2022/09/14 14:02:46;;;;;;;1.90;1.80;;;;;;;;;;5054002;28;20429;-76
2022/09/14 14:05:21;;;;;;;2.87;1.60;;;;;;;;;;5051587;28;20540;-76
2022/09/14 14:07:48;;;;;;;2.40;1.60;;;;;;;;;;5054349;28;20469;-75
2022/09/14 14:10:23;;;;;;;2.13;2.00;;;;;;;;;;5055655;28;20451;-77
2022/09/14 14:12:50;;;;;;;1.50;1.40;;;;;;;;;;5054669;28;20491;-76
2022/09/14 14:15:32;;;;;;;3.60;1.90;;;;;;;;;;5056171;28;20507;-77
2022/09/14 14:18:00;;;;;;;1.70;1.60;;;;;;;;;;5057557;28;20465;-76
2022/09/14 14:20:36;;;;;;;4.20;1.53;;;;;;;;;;5057683;28;20480;-76
2022/09/14 14:23:18;;;;;;;3.17;1.63;;;;;;;;;;5058294;28;20483;-76
2022/09/14 14:25:47;;;;;;;2.63;1.97;;;;;;;;;;5056773;28;20445;-76
2022/09/14 14:28:16;;;;;;;1.40;1.40;;;;;;;;;;5061449;28;20477;-76
2022/09/14 14:30:43;;;;;;;3.23;1.40;;;;;;;;;;5063149;28;21000;-75
2022/09/14 14:33:13;;;;;;;2.20;1.93;;;;;;;;;;5064563;28;20460;-76
2022/09/14 14:35:40;;;;;;;1.63;1.53;;;;;;;;;;5059014;28;20495;-75
2022/09/14 14:38:08;;;;;;;1.40;1.30;;;;;;;;;;5062345;28;20599;-78
2022/09/14 14:40:35;;;;;;;1.60;1.50;;;;;;;;;;5061717;28;20442;-76
2022/09/14 14:43:03;;;;;;;1.73;1.50;;;;;;;;;;5065093;28;20492;-75
2022/09/14 14:45:34;;;;;;;1.43;1.33;;;;;;;;;;5061673;28;20441;-76
2022/09/14 14:48:01;;;;;;;3.07;1.93;;;;;;;;;;5066293;28;20472;-77
2022/09/14 14:50:32;;;;;;;1.70;1.60;;;;;;;;;;5064275;28;20471;-77
2022/09/14 14:52:59;;;;;;;1.90;1.80;;;;;;;;;;5060598;28;20827;-76
2022/09/14 14:55:27;;;;;;;3.90;3.60;;;;;;;;;;5061713;28;20448;-76
2022/09/14 14:57:54;;;;;;;2.60;2.00;;;;;;;;;;5062507;28;20485;-77